Time;durP1;ratioP1;P1;durP2;ratioP2;P2;SDS_P1;SDS_P2;PMS_P1;PMS_P2;Temp;Humidity;BMP_temperature;BMP_pressure;BME280_temperature;BME280_humidity;BME280_pressure;Samples;Min_cycle;Max_cycle;Signal;HPM_P1;HPM_P2
2022/12/20 00:00:46;;;;;;;5.68;3.70;;;;;;;;;;4999573;28;20365;-66
2022/12/20 00:03:12;;;;;;;6.28;3.78;;;;;;;;;;5007923;28;20292;-66
2022/12/20 00:05:39;;;;;;;7.53;3.42;;;;;;;;;;4998626;28;20676;-67
2022/12/20 00:08:05;;;;;;;6.22;3.70;;;;;;;;;;5003830;28;20187;-67
2022/12/20 00:10:33;;;;;;;5.78;3.22;;;;;;;;;;5002562;28;20651;-66
2022/12/20 00:12:59;;;;;;;5.20;3.17;;;;;;;;;;5005784;28;20191;-66
2022/12/20 00:15:24;;;;;;;8.07;3.25;;;;;;;;;;5000367;28;20202;-66
2022/12/20 00:17:50;;;;;;;4.88;3.30;;;;;;;;;;5011482;28;20287;-67
2022/12/20 00:20:16;;;;;;;6.57;3.40;;;;;;;;;;4993862;28;20670;-66
2022/12/20 00:22:41;;;;;;;5.40;3.47;;;;;;;;;;5006965;28;20234;-66
2022/12/20 00:25:07;;;;;;;6.95;3.15;;;;;;;;;;5007514;28;20210;-66
2022/12/20 00:27:32;;;;;;;4.93;3.00;;;;;;;;;;5009933;28;20205;-66
2022/12/20 00:29:58;;;;;;;5.57;3.75;;;;;;;;;;5007648;28;20194;-66
2022/12/20 00:32:23;;;;;;;7.55;3.22;;;;;;;;;;5002031;28;20191;-67
2022/12/20 00:34:48;;;;;;;4.97;2.80;;;;;;;;;;5008077;28;20186;-66
2022/12/20 00:37:14;;;;;;;6.80;3.20;;;;;;;;;;5005715;28;20226;-66
2022/12/20 00:39:39;;;;;;;3.60;3.13;;;;;;;;;;5004564;28;20270;-66
2022/12/20 00:42:05;;;;;;;6.20;3.35;;;;;;;;;;5001716;28;20347;-66
2022/12/20 00:44:31;;;;;;;6.13;3.25;;;;;;;;;;4999672;28;20241;-66
2022/12/20 00:46:56;;;;;;;4.95;2.97;;;;;;;;;;5002118;28;20194;-66
2022/12/20 00:49:22;;;;;;;3.88;3.10;;;;;;;;;;5007323;28;20716;-67
2022/12/20 00:51:47;;;;;;;6.90;3.53;;;;;;;;;;5006193;28;20182;-66
2022/12/20 00:54:12;;;;;;;5.32;3.53;;;;;;;;;;4990274;28;20534;-67
2022/12/20 00:56:38;;;;;;;5.15;2.90;;;;;;;;;;5002863;28;20191;-68
2022/12/20 00:59:03;;;;;;;3.75;2.60;;;;;;;;;;5007962;28;20547;-66
2022/12/20 01:01:31;;;;;;;7.95;3.00;;;;;;;;;;5005805;28;20219;-66
2022/12/20 01:03:56;;;;;;;4.20;3.10;;;;;;;;;;5000091;28;20194;-67
2022/12/20 01:06:23;;;;;;;5.00;2.85;;;;;;;;;;5004497;28;20183;-67
2022/12/20 01:08:48;;;;;;;5.05;2.75;;;;;;;;;;5005794;28;20252;-67
2022/12/20 01:11:17;;;;;;;4.68;2.58;;;;;;;;;;5005271;28;20452;-67
2022/12/20 01:13:45;;;;;;;4.15;2.70;;;;;;;;;;4998745;28;20325;-67
2022/12/20 01:16:24;;;;;;;5.80;2.60;;;;;;;;;;5006665;28;20464;-68
2022/12/20 01:18:51;;;;;;;4.60;3.00;;;;;;;;;;5010405;28;20528;-68
2022/12/20 01:21:18;;;;;;;2.75;2.40;;;;;;;;;;5007851;28;20728;-67
2022/12/20 01:23:44;;;;;;;4.43;2.75;;;;;;;;;;5008620;28;20195;-68
2022/12/20 01:26:14;;;;;;;3.38;2.58;;;;;;;;;;5005196;28;20197;-66
2022/12/20 01:28:42;;;;;;;3.88;2.47;;;;;;;;;;5011950;28;20293;-66
2022/12/20 01:31:10;;;;;;;4.40;2.88;;;;;;;;;;5005931;28;20198;-67
2022/12/20 01:33:36;;;;;;;4.47;2.70;;;;;;;;;;5002873;28;20249;-66
2022/12/20 01:36:07;;;;;;;4.43;2.38;;;;;;;;;;5009550;28;20203;-67
2022/12/20 01:38:34;;;;;;;5.75;3.15;;;;;;;;;;5010528;28;20711;-66
2022/12/20 01:41:00;;;;;;;3.55;2.60;;;;;;;;;;5012800;28;20680;-66
2022/12/20 01:43:51;;;;;;;3.53;2.53;;;;;;;;;;5009693;28;20278;-67
2022/12/20 01:46:18;;;;;;;6.30;2.33;;;;;;;;;;5005296;28;20187;-66
2022/12/20 01:48:54;;;;;;;7.03;2.25;;;;;;;;;;5013126;28;20192;-67
2022/12/20 01:51:21;;;;;;;4.18;2.65;;;;;;;;;;5009438;28;20237;-67
2022/12/20 01:53:50;;;;;;;4.15;2.60;;;;;;;;;;5010015;28;20543;-67
2022/12/20 01:56:16;;;;;;;4.20;2.60;;;;;;;;;;5010875;28;20257;-67
2022/12/20 01:58:42;;;;;;;3.42;2.50;;;;;;;;;;5011188;28;20195;-67
2022/12/20 02:01:08;;;;;;;3.75;2.30;;;;;;;;;;5010275;28;20269;-67
2022/12/20 02:03:33;;;;;;;2.55;2.25;;;;;;;;;;5011328;28;20600;-67
2022/12/20 02:06:13;;;;;;;3.72;2.15;;;;;;;;;;5008622;28;20214;-67
2022/12/20 02:08:39;;;;;;;3.50;1.98;;;;;;;;;;5006819;28;20244;-67
2022/12/20 02:11:21;;;;;;;3.70;2.08;;;;;;;;;;5009948;28;20195;-67
2022/12/20 02:14:07;;;;;;;3.97;2.20;;;;;;;;;;5007993;28;20206;-67
2022/12/20 02:16:42;;;;;;;4.50;2.83;;;;;;;;;;5009811;28;20249;-67
2022/12/20 02:19:13;;;;;;;3.92;2.30;;;;;;;;;;5008795;28;20189;-67
2022/12/20 02:21:44;;;;;;;2.00;1.80;;;;;;;;;;5007484;28;20239;-67
2022/12/20 02:24:52;;;;;;;4.03;2.15;;;;;;;;;;4997153;28;20551;-67
2022/12/20 02:27:42;;;;;;;3.80;2.30;;;;;;;;;;5008382;28;20242;-66
2022/12/20 02:30:13;;;;;;;3.75;1.92;;;;;;;;;;4994072;28;20186;-67
2022/12/20 02:32:55;;;;;;;5.60;2.20;;;;;;;;;;5002876;28;20198;-67
2022/12/20 02:35:25;;;;;;;5.18;2.53;;;;;;;;;;5007037;28;20202;-68
2022/12/20 02:37:57;;;;;;;4.32;2.50;;;;;;;;;;5004289;28;20191;-67
2022/12/20 02:40:27;;;;;;;4.32;2.45;;;;;;;;;;5010344;28;20219;-67
2022/12/20 02:43:00;;;;;;;3.65;2.30;;;;;;;;;;5008662;28;20217;-67
2022/12/20 02:45:32;;;;;;;3.33;2.28;;;;;;;;;;5001817;28;20195;-68
2022/12/20 02:48:01;;;;;;;6.05;2.78;;;;;;;;;;4999077;28;20225;-68
2022/12/20 02:50:41;;;;;;;6.15;2.58;;;;;;;;;;5010375;28;20187;-68
2022/12/20 02:53:08;;;;;;;3.70;2.58;;;;;;;;;;5016874;28;20198;-68
2022/12/20 02:55:56;;;;;;;5.88;2.72;;;;;;;;;;5002971;28;20194;-69
2022/12/20 02:58:33;;;;;;;5.68;2.78;;;;;;;;;;5016890;28;20621;-68
2022/12/20 03:01:03;;;;;;;4.40;2.60;;;;;;;;;;5009409;28;20288;-68
2022/12/20 03:03:31;;;;;;;4.57;2.55;;;;;;;;;;5003742;28;20570;-67
2022/12/20 03:05:57;;;;;;;3.75;2.47;;;;;;;;;;5015966;28;20585;-69
2022/12/20 03:08:23;;;;;;;6.53;3.53;;;;;;;;;;5005809;28;20190;-67
2022/12/20 03:10:50;;;;;;;4.95;3.05;;;;;;;;;;5000454;28;20559;-68
2022/12/20 03:13:16;;;;;;;6.40;3.20;;;;;;;;;;5002229;28;20305;-69
2022/12/20 03:15:41;;;;;;;8.02;3.53;;;;;;;;;;5007885;28;20195;-69
2022/12/20 03:18:07;;;;;;;6.45;3.05;;;;;;;;;;5009052;28;20191;-69
2022/12/20 03:20:32;;;;;;;5.10;3.30;;;;;;;;;;5008668;28;20522;-70
2022/12/20 03:22:58;;;;;;;4.35;3.35;;;;;;;;;;4998392;28;20246;-69
2022/12/20 03:25:23;;;;;;;4.82;3.30;;;;;;;;;;5000505;28;20195;-68
2022/12/20 03:27:48;;;;;;;5.85;3.53;;;;;;;;;;5007324;28;20192;-69
2022/12/20 03:30:14;;;;;;;6.05;3.58;;;;;;;;;;5010610;28;20848;-69
2022/12/20 03:32:39;;;;;;;9.45;4.22;;;;;;;;;;5005711;28;20661;-69
2022/12/20 03:35:05;;;;;;;6.55;3.83;;;;;;;;;;5008626;28;20786;-68
2022/12/20 03:37:31;;;;;;;6.40;3.70;;;;;;;;;;5007714;28;20685;-68
2022/12/20 03:39:56;;;;;;;9.18;3.97;;;;;;;;;;4994866;28;20198;-68
2022/12/20 03:42:21;;;;;;;4.20;3.65;;;;;;;;;;5002452;28;20234;-68
2022/12/20 03:44:47;;;;;;;5.03;4.40;;;;;;;;;;5023363;28;20222;-67
2022/12/20 03:47:12;;;;;;;5.10;3.78;;;;;;;;;;5004657;28;20183;-67
2022/12/20 03:49:38;;;;;;;8.00;4.05;;;;;;;;;;5001352;28;20678;-67
2022/12/20 03:52:03;;;;;;;8.40;4.18;;;;;;;;;;5007990;28;20183;-68
2022/12/20 03:54:29;;;;;;;5.80;3.95;;;;;;;;;;4995840;28;20201;-67
2022/12/20 03:56:54;;;;;;;8.30;3.88;;;;;;;;;;5008727;28;20217;-68
2022/12/20 03:59:20;;;;;;;5.53;3.85;;;;;;;;;;5008720;28;20847;-67
2022/12/20 04:01:45;;;;;;;5.57;3.65;;;;;;;;;;5007873;28;20634;-67
2022/12/20 04:04:12;;;;;;;5.97;3.55;;;;;;;;;;4996352;28;20187;-67
2022/12/20 04:06:38;;;;;;;4.88;3.90;;;;;;;;;;5018900;28;20658;-66
2022/12/20 04:09:03;;;;;;;5.00;3.85;;;;;;;;;;4997701;28;20202;-67
2022/12/20 04:11:29;;;;;;;6.65;3.97;;;;;;;;;;5006148;28;20617;-66
2022/12/20 04:13:54;;;;;;;5.43;4.13;;;;;;;;;;5007105;28;20183;-67
2022/12/20 04:16:25;;;;;;;6.05;3.55;;;;;;;;;;5009587;28;20198;-68
2022/12/20 04:18:50;;;;;;;6.03;3.88;;;;;;;;;;5000428;28;20182;-66
2022/12/20 04:21:30;;;;;;;4.45;3.60;;;;;;;;;;5006799;28;20288;-68
2022/12/20 04:23:57;;;;;;;5.13;3.40;;;;;;;;;;5000522;28;20601;-67
2022/12/20 04:26:23;;;;;;;7.53;3.45;;;;;;;;;;5004859;28;20198;-67
2022/12/20 04:28:49;;;;;;;5.88;3.83;;;;;;;;;;5005992;28;20682;-67
2022/12/20 04:31:14;;;;;;;4.70;3.65;;;;;;;;;;5008315;28;20199;-67
2022/12/20 04:33:39;;;;;;;6.50;3.38;;;;;;;;;;5000488;28;20873;-67
2022/12/20 04:36:05;;;;;;;5.80;3.90;;;;;;;;;;5008316;28;20190;-67
2022/12/20 04:38:31;;;;;;;7.85;4.32;;;;;;;;;;4998758;28;20283;-68
2022/12/20 04:40:57;;;;;;;5.25;3.42;;;;;;;;;;5003728;28;20270;-67
2022/12/20 04:43:23;;;;;;;5.65;3.22;;;;;;;;;;5001013;28;20289;-67
2022/12/20 04:45:51;;;;;;;5.15;3.55;;;;;;;;;;5008928;28;20193;-67
2022/12/20 04:48:17;;;;;;;5.85;3.70;;;;;;;;;;5000584;28;20212;-67
2022/12/20 04:50:47;;;;;;;5.60;3.50;;;;;;;;;;5010933;28;20226;-67
2022/12/20 04:55:58;;;;;;;4.63;3.58;;;;;;;;;;5008808;28;20193;-67
2022/12/20 04:58:23;;;;;;;5.00;3.47;;;;;;;;;;5006718;28;20186;-67
2022/12/20 05:00:51;;;;;;;7.35;3.70;;;;;;;;;;5014687;28;20687;-67
2022/12/20 05:03:19;;;;;;;7.38;3.25;;;;;;;;;;5004819;28;20199;-66
2022/12/20 05:05:45;;;;;;;6.72;3.33;;;;;;;;;;5002397;28;20627;-67
2022/12/20 05:08:11;;;;;;;6.88;3.25;;;;;;;;;;5006871;28;20194;-68
2022/12/20 05:10:36;;;;;;;6.15;3.20;;;;;;;;;;5006705;28;20692;-68
2022/12/20 05:13:02;;;;;;;4.68;3.50;;;;;;;;;;5007621;28;20246;-67
2022/12/20 05:15:28;;;;;;;6.38;3.10;;;;;;;;;;5009543;28;20187;-68
2022/12/20 05:17:58;;;;;;;5.97;3.42;;;;;;;;;;5002192;28;20199;-66
2022/12/20 05:20:27;;;;;;;5.90;2.92;;;;;;;;;;4999754;28;20192;-68
2022/12/20 05:28:25;;;;;;;6.25;3.50;;;;;;;;;;5003654;28;20317;-66
2022/12/20 05:30:51;;;;;;;4.25;3.05;;;;;;;;;;5008681;28;20781;-67
2022/12/20 05:33:16;;;;;;;6.68;3.50;;;;;;;;;;5002931;28;20199;-67
2022/12/20 05:35:41;;;;;;;7.00;3.78;;;;;;;;;;5003975;28;20677;-66
2022/12/20 05:38:07;;;;;;;6.95;3.70;;;;;;;;;;5009499;28;20191;-67
2022/12/20 05:40:32;;;;;;;4.68;3.13;;;;;;;;;;5007425;28;20214;-66
2022/12/20 05:42:58;;;;;;;10.50;3.30;;;;;;;;;;5002392;28;20238;-67
2022/12/20 05:45:23;;;;;;;5.70;3.00;;;;;;;;;;5008203;28;20219;-67
2022/12/20 05:47:48;;;;;;;5.57;3.00;;;;;;;;;;5007909;28;20624;-66
2022/12/20 05:50:16;;;;;;;7.15;3.20;;;;;;;;;;5005987;28;20198;-67
2022/12/20 05:52:41;;;;;;;4.40;2.50;;;;;;;;;;5006870;28;20179;-66
2022/12/20 05:55:07;;;;;;;5.78;3.03;;;;;;;;;;5009422;28;20515;-66
2022/12/20 05:57:32;;;;;;;4.60;2.85;;;;;;;;;;5009931;28;20278;-67
2022/12/20 05:59:58;;;;;;;5.70;2.55;;;;;;;;;;5005102;28;20214;-66
2022/12/20 06:02:23;;;;;;;3.45;2.95;;;;;;;;;;5008691;28;20622;-66
2022/12/20 06:04:48;;;;;;;4.43;2.60;;;;;;;;;;5006111;28;20194;-66
2022/12/20 06:07:14;;;;;;;9.13;3.13;;;;;;;;;;5005639;28;20290;-67
2022/12/20 06:09:39;;;;;;;3.50;2.90;;;;;;;;;;5005935;28;20581;-67
2022/12/20 06:12:05;;;;;;;5.53;3.00;;;;;;;;;;5008503;28;20324;-66
2022/12/20 06:14:30;;;;;;;3.95;3.15;;;;;;;;;;5003818;28;20176;-67
2022/12/20 06:16:55;;;;;;;4.97;3.25;;;;;;;;;;5002977;28;20190;-67
2022/12/20 06:19:21;;;;;;;4.63;3.30;;;;;;;;;;5000042;28;20198;-67
2022/12/20 06:21:46;;;;;;;6.15;3.28;;;;;;;;;;5004122;28;20223;-67
2022/12/20 06:24:11;;;;;;;5.63;3.55;;;;;;;;;;4999203;28;20195;-68
2022/12/20 06:26:37;;;;;;;5.93;3.55;;;;;;;;;;5008539;28;20270;-67
2022/12/20 06:29:05;;;;;;;6.65;3.45;;;;;;;;;;5003037;28;20194;-67
2022/12/20 06:31:32;;;;;;;6.72;3.45;;;;;;;;;;5008840;28;20183;-67
2022/12/20 06:33:57;;;;;;;6.93;3.83;;;;;;;;;;4998120;28;20495;-68
2022/12/20 06:36:22;;;;;;;4.85;3.70;;;;;;;;;;4999959;28;20201;-68
2022/12/20 06:38:48;;;;;;;8.98;3.80;;;;;;;;;;5002880;28;20233;-67
2022/12/20 06:41:13;;;;;;;6.40;3.95;;;;;;;;;;5008592;28;20179;-68
2022/12/20 06:43:39;;;;;;;8.48;3.90;;;;;;;;;;5005773;28;20194;-68
2022/12/20 06:46:05;;;;;;;5.85;4.20;;;;;;;;;;5007660;28;20256;-68
2022/12/20 06:48:30;;;;;;;6.50;4.47;;;;;;;;;;5001519;28;20191;-68
2022/12/20 06:50:55;;;;;;;7.38;4.32;;;;;;;;;;5014673;28;20556;-68
2022/12/20 06:53:21;;;;;;;7.70;4.60;;;;;;;;;;5000466;28;20335;-68
2022/12/20 06:55:49;;;;;;;7.15;4.78;;;;;;;;;;5005457;28;20198;-67
2022/12/20 06:58:14;;;;;;;7.22;4.47;;;;;;;;;;4996073;28;20190;-68
2022/12/20 07:00:40;;;;;;;8.60;4.25;;;;;;;;;;5001055;28;20528;-67
2022/12/20 07:03:05;;;;;;;7.45;4.60;;;;;;;;;;5007400;28;20226;-68
2022/12/20 07:05:30;;;;;;;8.75;4.45;;;;;;;;;;5002759;28;20205;-67
2022/12/20 07:07:56;;;;;;;6.82;4.25;;;;;;;;;;5003002;28;20578;-68
2022/12/20 07:10:21;;;;;;;6.68;4.68;;;;;;;;;;5017681;28;20190;-68
2022/12/20 07:12:46;;;;;;;9.00;4.30;;;;;;;;;;5015766;28;20191;-68
2022/12/20 07:15:12;;;;;;;6.97;3.53;;;;;;;;;;4996877;28;20222;-68
2022/12/20 07:17:37;;;;;;;4.88;3.95;;;;;;;;;;5013983;28;20186;-68
2022/12/20 07:20:03;;;;;;;9.15;4.20;;;;;;;;;;5006459;28;20194;-68
2022/12/20 07:22:28;;;;;;;6.03;4.45;;;;;;;;;;5001896;28;20242;-68
2022/12/20 07:24:54;;;;;;;5.55;4.10;;;;;;;;;;5003335;28;20191;-68
2022/12/20 07:27:20;;;;;;;8.25;4.30;;;;;;;;;;5004189;28;20191;-67
2022/12/20 07:29:45;;;;;;;6.30;4.07;;;;;;;;;;5002056;28;20201;-68
2022/12/20 07:32:13;;;;;;;8.18;4.57;;;;;;;;;;5008706;28;20258;-68
2022/12/20 07:34:39;;;;;;;7.05;3.85;;;;;;;;;;5004867;28;20179;-67
2022/12/20 07:37:04;;;;;;;5.93;4.07;;;;;;;;;;4991645;28;20189;-68
2022/12/20 07:39:29;;;;;;;6.15;4.00;;;;;;;;;;5008912;28;20563;-68
2022/12/20 07:41:55;;;;;;;6.03;4.00;;;;;;;;;;5017368;28;20218;-69
2022/12/20 07:44:21;;;;;;;7.82;3.85;;;;;;;;;;4997986;28;20202;-68
2022/12/20 07:46:47;;;;;;;7.63;3.75;;;;;;;;;;5006740;28;20181;-68
2022/12/20 07:49:12;;;;;;;7.40;3.90;;;;;;;;;;5009346;28;20573;-70
2022/12/20 07:51:44;;;;;;;7.78;3.78;;;;;;;;;;5008718;28;20183;-68
2022/12/20 07:54:12;;;;;;;7.45;4.28;;;;;;;;;;5002148;28;20261;-68
2022/12/20 07:56:42;;;;;;;8.52;3.70;;;;;;;;;;5006697;28;20704;-67
2022/12/20 07:59:12;;;;;;;7.30;3.47;;;;;;;;;;5001190;28;20270;-68
2022/12/20 08:01:38;;;;;;;6.90;3.70;;;;;;;;;;5002260;28;20207;-68
2022/12/20 08:04:14;;;;;;;6.93;3.60;;;;;;;;;;4992096;28;20187;-68
2022/12/20 08:06:40;;;;;;;7.80;3.70;;;;;;;;;;5005803;28;20220;-67
2022/12/20 08:09:11;;;;;;;10.02;3.72;;;;;;;;;;5005289;28;20193;-68
2022/12/20 08:11:37;;;;;;;5.75;3.40;;;;;;;;;;5005157;28;20186;-68
2022/12/20 08:14:05;;;;;;;4.22;3.30;;;;;;;;;;5005377;28;20457;-67
2022/12/20 08:16:30;;;;;;;7.28;3.60;;;;;;;;;;5009814;28;20277;-68
2022/12/20 08:18:56;;;;;;;6.38;3.85;;;;;;;;;;5003830;28;20504;-68
2022/12/20 08:21:21;;;;;;;6.70;3.70;;;;;;;;;;5006581;28;20313;-68
2022/12/20 08:23:47;;;;;;;8.13;3.35;;;;;;;;;;5004065;28;20195;-67
2022/12/20 08:26:12;;;;;;;5.80;3.30;;;;;;;;;;4995774;28;20245;-67
2022/12/20 08:28:38;;;;;;;5.03;3.08;;;;;;;;;;5008212;28;20661;-68
2022/12/20 08:31:05;;;;;;;8.32;3.20;;;;;;;;;;5005550;28;20281;-68
2022/12/20 08:33:32;;;;;;;3.60;3.20;;;;;;;;;;5007600;28;20461;-68
2022/12/20 08:36:04;;;;;;;8.13;3.17;;;;;;;;;;5008601;28;20221;-68
2022/12/20 08:38:31;;;;;;;7.25;3.15;;;;;;;;;;5001222;28;20286;-67
2022/12/20 08:41:12;;;;;;;6.88;3.40;;;;;;;;;;5005020;28;20544;-67
2022/12/20 08:43:39;;;;;;;4.45;2.85;;;;;;;;;;5007252;28;20236;-67
2022/12/20 08:46:05;;;;;;;4.68;3.03;;;;;;;;;;5003959;28;20198;-67
2022/12/20 08:48:31;;;;;;;3.78;2.80;;;;;;;;;;5008920;28;20205;-67
2022/12/20 08:51:00;;;;;;;4.82;2.67;;;;;;;;;;5004041;28;20268;-68
2022/12/20 08:53:25;;;;;;;5.95;3.10;;;;;;;;;;5000886;28;20198;-67
2022/12/20 08:55:51;;;;;;;5.55;2.63;;;;;;;;;;5001975;28;20500;-67
2022/12/20 08:58:17;;;;;;;4.55;2.60;;;;;;;;;;5007315;28;20233;-68
2022/12/20 09:00:42;;;;;;;5.72;2.88;;;;;;;;;;5008729;28;20214;-67
2022/12/20 09:03:10;;;;;;;4.18;2.80;;;;;;;;;;5008548;28;20677;-67
2022/12/20 09:05:35;;;;;;;3.85;2.75;;;;;;;;;;5007073;28;20541;-67
2022/12/20 09:08:01;;;;;;;6.65;2.90;;;;;;;;;;5000853;28;20196;-67
2022/12/20 09:10:26;;;;;;;5.38;2.53;;;;;;;;;;5005522;28;20241;-67
2022/12/20 09:12:52;;;;;;;6.38;2.50;;;;;;;;;;5007117;28;20190;-67
2022/12/20 09:15:17;;;;;;;4.47;2.53;;;;;;;;;;5005588;28;20191;-68
2022/12/20 09:17:42;;;;;;;4.97;2.55;;;;;;;;;;5005882;28;20183;-68
2022/12/20 09:20:08;;;;;;;2.63;2.08;;;;;;;;;;5005710;28;20187;-68
2022/12/20 09:22:33;;;;;;;6.85;2.40;;;;;;;;;;4994823;28;20226;-67
2022/12/20 09:24:59;;;;;;;6.88;2.58;;;;;;;;;;5001815;28;20183;-68
2022/12/20 09:27:24;;;;;;;3.60;2.40;;;;;;;;;;5001162;28;20189;-67
2022/12/20 09:29:49;;;;;;;5.57;2.67;;;;;;;;;;5003380;28;20572;-67
2022/12/20 09:32:15;;;;;;;3.90;2.38;;;;;;;;;;5008883;28;20195;-67
2022/12/20 09:34:40;;;;;;;4.53;2.17;;;;;;;;;;5011229;28;20195;-68
2022/12/20 09:37:06;;;;;;;5.65;2.42;;;;;;;;;;5008854;28;20255;-68
2022/12/20 09:39:31;;;;;;;3.42;2.22;;;;;;;;;;5009333;28;20278;-68
2022/12/20 09:41:57;;;;;;;5.88;2.10;;;;;;;;;;5002111;28;20674;-68
2022/12/20 09:44:31;;;;;;;5.35;2.58;;;;;;;;;;5009150;28;20245;-67
2022/12/20 09:47:06;;;;;;;3.40;2.20;;;;;;;;;;5011819;28;20571;-67
2022/12/20 09:49:35;;;;;;;7.22;2.60;;;;;;;;;;5008295;28;20195;-67
2022/12/20 09:52:29;;;;;;;6.57;2.30;;;;;;;;;;5011992;28;20194;-68
2022/12/20 09:55:03;;;;;;;5.53;2.45;;;;;;;;;;5009137;28;20201;-67
2022/12/20 09:57:56;;;;;;;3.08;2.00;;;;;;;;;;5012829;28;20187;-68
2022/12/20 10:00:22;;;;;;;5.15;2.20;;;;;;;;;;5005704;28;20223;-68
2022/12/20 10:02:48;;;;;;;4.25;2.00;;;;;;;;;;5005448;28;20290;-68
2022/12/20 10:05:15;;;;;;;3.65;2.30;;;;;;;;;;5006948;28;20218;-67
2022/12/20 10:08:00;;;;;;;4.40;2.70;;;;;;;;;;5011210;28;20545;-67
2022/12/20 10:10:49;;;;;;;4.72;2.63;;;;;;;;;;5009376;28;20666;-68
2022/12/20 10:13:22;;;;;;;5.82;3.03;;;;;;;;;;5009442;28;20191;-69
2022/12/20 10:15:55;;;;;;;3.90;2.83;;;;;;;;;;5000563;28;20732;-70
2022/12/20 10:18:40;;;;;;;4.60;2.70;;;;;;;;;;5011341;28;20666;-70
2022/12/20 10:21:43;;;;;;;6.30;2.97;;;;;;;;;;5002653;28;20468;-70
2022/12/20 10:24:23;;;;;;;9.65;3.50;;;;;;;;;;5007021;28;20246;-70
2022/12/20 10:26:50;;;;;;;6.78;3.55;;;;;;;;;;5001487;28;20278;-70
2022/12/20 10:29:16;;;;;;;7.60;3.45;;;;;;;;;;5003399;28;20187;-70
2022/12/20 10:31:41;;;;;;;5.13;3.35;;;;;;;;;;5011090;28;20214;-69
2022/12/20 10:34:07;;;;;;;5.32;3.20;;;;;;;;;;5009003;28;20606;-69
2022/12/20 10:36:35;;;;;;;12.82;3.50;;;;;;;;;;4999344;28;20297;-69
2022/12/20 10:39:04;;;;;;;7.35;4.07;;;;;;;;;;4997511;28;20241;-70
2022/12/20 10:41:47;;;;;;;5.85;3.45;;;;;;;;;;4996598;28;20194;-69
2022/12/20 10:44:13;;;;;;;6.53;3.40;;;;;;;;;;5020398;28;20284;-69
2022/12/20 10:46:43;;;;;;;7.47;3.33;;;;;;;;;;5001953;28;20191;-70
2022/12/20 10:49:31;;;;;;;6.43;3.20;;;;;;;;;;5010970;28;20220;-69
2022/12/20 10:52:17;;;;;;;6.05;3.25;;;;;;;;;;4998453;28;20187;-69
2022/12/20 10:54:46;;;;;;;5.82;3.92;;;;;;;;;;4993501;28;20670;-70
2022/12/20 10:57:11;;;;;;;5.65;3.85;;;;;;;;;;4998060;28;20187;-70
2022/12/20 10:59:41;;;;;;;7.38;3.67;;;;;;;;;;5018838;28;20574;-70
2022/12/20 11:02:31;;;;;;;7.38;3.80;;;;;;;;;;4995448;28;20579;-70
2022/12/20 11:04:59;;;;;;;5.60;3.75;;;;;;;;;;5008678;28;20215;-71
2022/12/20 11:07:30;;;;;;;6.95;3.50;;;;;;;;;;5008100;28;20257;-70
2022/12/20 11:09:58;;;;;;;4.88;3.50;;;;;;;;;;4999174;28;20190;-70
2022/12/20 11:12:24;;;;;;;6.18;3.67;;;;;;;;;;5009205;28;20194;-70
2022/12/20 11:14:49;;;;;;;6.20;3.42;;;;;;;;;;5000991;28;20195;-70
2022/12/20 11:17:29;;;;;;;6.40;3.53;;;;;;;;;;5000581;28;20199;-68
2022/12/20 11:20:19;;;;;;;4.30;3.40;;;;;;;;;;5008060;28;20273;-70
2022/12/20 11:23:12;;;;;;;6.28;3.42;;;;;;;;;;5006348;28;20305;-68
2022/12/20 11:26:04;;;;;;;6.28;3.63;;;;;;;;;;5012849;28;20203;-68
2022/12/20 11:28:51;;;;;;;5.95;3.45;;;;;;;;;;5007129;28;20287;-69
2022/12/20 11:31:41;;;;;;;7.97;3.90;;;;;;;;;;4995005;28;20285;-70
2022/12/20 11:34:21;;;;;;;6.38;3.58;;;;;;;;;;4994699;28;20199;-70
2022/12/20 11:37:09;;;;;;;6.57;3.63;;;;;;;;;;5008522;28;20201;-70
2022/12/20 11:39:48;;;;;;;7.00;4.25;;;;;;;;;;5007827;28;20193;-70
2022/12/20 11:42:14;;;;;;;5.30;3.92;;;;;;;;;;5002704;28;20409;-69
2022/12/20 11:44:54;;;;;;;6.75;3.90;;;;;;;;;;5010317;28;20262;-69
2022/12/20 11:48:01;;;;;;;6.32;3.80;;;;;;;;;;5009990;28;20190;-68
2022/12/20 11:50:54;;;;;;;9.98;4.18;;;;;;;;;;4988467;28;20199;-68
2022/12/20 11:53:30;;;;;;;8.80;4.68;;;;;;;;;;5008839;28;20183;-69
2022/12/20 11:56:00;;;;;;;6.57;4.57;;;;;;;;;;4997822;28;20218;-68
2022/12/20 11:58:51;;;;;;;7.72;4.57;;;;;;;;;;5014669;28;20646;-69
2022/12/20 12:01:23;;;;;;;6.93;3.97;;;;;;;;;;5000288;28;20266;-69
2022/12/20 12:04:08;;;;;;;6.55;4.05;;;;;;;;;;5005176;28;20194;-69
2022/12/20 12:06:40;;;;;;;7.10;4.65;;;;;;;;;;4998467;28;20257;-68
2022/12/20 12:09:37;;;;;;;4.47;4.03;;;;;;;;;;5003684;28;20187;-68
2022/12/20 12:12:25;;;;;;;6.68;4.40;;;;;;;;;;5000094;28;20277;-68
2022/12/20 12:15:22;;;;;;;5.85;4.07;;;;;;;;;;5009593;28;20195;-69
2022/12/20 12:18:03;;;;;;;9.18;4.57;;;;;;;;;;4991868;28;20207;-68
2022/12/20 12:20:37;;;;;;;6.97;5.07;;;;;;;;;;5002281;28;20191;-68
2022/12/20 12:23:11;;;;;;;5.40;3.95;;;;;;;;;;5007954;28;20237;-68
2022/12/20 12:25:37;;;;;;;8.60;4.30;;;;;;;;;;5004782;28;20258;-68
2022/12/20 12:28:03;;;;;;;6.28;4.28;;;;;;;;;;5011959;28;20611;-69
2022/12/20 12:30:36;;;;;;;8.27;3.92;;;;;;;;;;5005611;28;20278;-68
2022/12/20 12:33:13;;;;;;;6.32;3.70;;;;;;;;;;4995235;28;20641;-69
2022/12/20 12:36:00;;;;;;;8.85;3.88;;;;;;;;;;5001395;28;20187;-69
2022/12/20 12:38:37;;;;;;;8.98;4.40;;;;;;;;;;4997584;28;20182;-68
2022/12/20 12:41:34;;;;;;;5.78;3.83;;;;;;;;;;5002219;28;20233;-68
2022/12/20 12:44:18;;;;;;;8.02;4.30;;;;;;;;;;5008586;28;20217;-67
2022/12/20 12:46:47;;;;;;;6.55;4.55;;;;;;;;;;5001741;28;20527;-67
2022/12/20 12:49:21;;;;;;;5.10;3.90;;;;;;;;;;5008654;28;20773;-67
2022/12/20 12:51:54;;;;;;;8.00;3.97;;;;;;;;;;4996667;28;20633;-66
2022/12/20 12:54:38;;;;;;;7.75;4.05;;;;;;;;;;5007167;28;20657;-67
2022/12/20 12:57:13;;;;;;;8.05;4.40;;;;;;;;;;5010264;28;20721;-67
2022/12/20 12:59:38;;;;;;;6.65;4.55;;;;;;;;;;5008124;28;20677;-67
2022/12/20 13:02:13;;;;;;;10.65;4.53;;;;;;;;;;5002538;28;20218;-67
2022/12/20 13:04:54;;;;;;;9.07;4.45;;;;;;;;;;5009753;28;20191;-68
2022/12/20 13:07:31;;;;;;;6.30;4.32;;;;;;;;;;5007342;28;20552;-68
2022/12/20 13:09:58;;;;;;;6.47;4.75;;;;;;;;;;4998433;28;20199;-67
2022/12/20 13:12:35;;;;;;;4.32;3.90;;;;;;;;;;5007326;28;20312;-67
2022/12/20 13:15:21;;;;;;;8.35;4.70;;;;;;;;;;5005515;28;20344;-67
2022/12/20 13:17:51;;;;;;;7.47;4.22;;;;;;;;;;5002682;28;20202;-67
2022/12/20 13:20:19;;;;;;;5.63;4.28;;;;;;;;;;5012605;28;20664;-68
2022/12/20 13:23:06;;;;;;;5.80;3.80;;;;;;;;;;4997162;28;20228;-68
2022/12/20 13:25:34;;;;;;;7.35;4.63;;;;;;;;;;5009490;28;20225;-67
2022/12/20 13:28:15;;;;;;;5.93;4.10;;;;;;;;;;5010753;28;20182;-68
2022/12/20 13:30:42;;;;;;;6.47;4.05;;;;;;;;;;5006450;28;20194;-68
2022/12/20 13:33:45;;;;;;;6.32;4.20;;;;;;;;;;5010423;28;20252;-68
2022/12/20 13:36:10;;;;;;;7.53;4.47;;;;;;;;;;5006858;28;20289;-68
2022/12/20 13:38:43;;;;;;;13.10;4.82;;;;;;;;;;5009653;28;20282;-67
2022/12/20 13:41:33;;;;;;;7.47;4.47;;;;;;;;;;5010338;28;20252;-67
2022/12/20 13:44:07;;;;;;;7.93;4.68;;;;;;;;;;5013369;28;20273;-67
2022/12/20 13:46:54;;;;;;;9.77;4.47;;;;;;;;;;5008256;28;20196;-68
2022/12/20 13:49:25;;;;;;;8.63;5.13;;;;;;;;;;5006333;28;20197;-68
2022/12/20 13:52:21;;;;;;;9.07;4.63;;;;;;;;;;5007276;28;20187;-68
2022/12/20 13:54:49;;;;;;;7.05;4.82;;;;;;;;;;4998529;28;20210;-67
2022/12/20 13:57:27;;;;;;;8.48;4.88;;;;;;;;;;5008488;28;20187;-68
2022/12/20 13:59:55;;;;;;;7.35;4.70;;;;;;;;;;5009085;28;20201;-68
2022/12/20 14:02:29;;;;;;;8.40;5.53;;;;;;;;;;5001222;28;20215;-68
2022/12/20 14:04:59;;;;;;;9.15;5.00;;;;;;;;;;5010029;28;20186;-68
2022/12/20 14:07:27;;;;;;;7.78;5.35;;;;;;;;;;5009476;28;20218;-67
2022/12/20 14:09:58;;;;;;;12.70;5.50;;;;;;;;;;5008920;28;20587;-67
2022/12/20 14:12:26;;;;;;;9.05;4.80;;;;;;;;;;5005182;28;20652;-68
2022/12/20 14:14:52;;;;;;;6.65;4.72;;;;;;;;;;5011642;28;20193;-67
2022/12/20 14:17:24;;;;;;;9.63;5.50;;;;;;;;;;5009555;28;20461;-68
2022/12/20 14:20:21;;;;;;;6.82;4.90;;;;;;;;;;5017860;28;20183;-67
2022/12/20 14:22:55;;;;;;;8.35;5.45;;;;;;;;;;5005213;28;20601;-68
2022/12/20 14:25:37;;;;;;;6.68;5.03;;;;;;;;;;5019501;28;20191;-69
2022/12/20 14:28:04;;;;;;;8.88;5.95;;;;;;;;;;5012884;28;20362;-69
2022/12/20 14:30:34;;;;;;;9.68;6.40;;;;;;;;;;5013453;28;20191;-69
2022/12/20 14:33:00;;;;;;;6.32;5.18;;;;;;;;;;5006055;28;20672;-68
2022/12/20 14:35:26;;;;;;;11.15;6.00;;;;;;;;;;5016463;28;20194;-68
2022/12/20 14:37:55;;;;;;;11.73;5.93;;;;;;;;;;5017423;28;20717;-68
2022/12/20 14:40:21;;;;;;;9.98;6.72;;;;;;;;;;5007594;28;20189;-69
2022/12/20 14:42:46;;;;;;;11.05;5.57;;;;;;;;;;5019895;28;20685;-69
2022/12/20 14:45:12;;;;;;;10.05;5.72;;;;;;;;;;5009432;28;20236;-69
2022/12/20 14:47:47;;;;;;;9.57;5.85;;;;;;;;;;5003308;28;20199;-68
2022/12/20 14:50:24;;;;;;;7.45;5.80;;;;;;;;;;5017069;28;20186;-69
2022/12/20 14:52:50;;;;;;;9.38;6.07;;;;;;;;;;5001006;28;20241;-69
2022/12/20 14:55:26;;;;;;;7.05;5.82;;;;;;;;;;5001150;28;20191;-69
2022/12/20 14:57:53;;;;;;;8.63;5.80;;;;;;;;;;5014308;28;20716;-69
2022/12/20 15:00:28;;;;;;;8.75;6.07;;;;;;;;;;5000195;28;20215;-70
2022/12/20 15:03:09;;;;;;;8.80;5.85;;;;;;;;;;5004558;28;20216;-69
2022/12/20 15:05:46;;;;;;;7.50;6.40;;;;;;;;;;5006940;28;20187;-69
2022/12/20 15:08:25;;;;;;;10.18;6.57;;;;;;;;;;5002740;28;20382;-69
2022/12/20 15:10:55;;;;;;;9.70;6.72;;;;;;;;;;5010294;28;20646;-69